createdAt,value
2018-07-19T00:01:01.239Z,6.50
2018-07-19T00:03:32.753Z,6.37
2018-07-19T00:06:03.359Z,6.13
2018-07-19T00:08:34.826Z,5.97
2018-07-19T00:11:06.131Z,5.90
2018-07-19T00:13:37.620Z,5.73
2018-07-19T00:16:09.150Z,5.90
2018-07-19T00:18:40.380Z,6.17
2018-07-19T00:21:11.539Z,5.73
2018-07-19T00:23:42.843Z,5.23
2018-07-19T00:26:14.225Z,6.10
2018-07-19T00:28:45.806Z,5.97
2018-07-19T00:31:17.301Z,6.40
2018-07-19T00:33:48.118Z,5.87
2018-07-19T00:36:19.776Z,6.20
2018-07-19T00:38:51.496Z,5.53
2018-07-19T00:41:22.666Z,6.20
2018-07-19T00:43:53.112Z,5.90
2018-07-19T00:46:24.611Z,6.00
2018-07-19T00:48:55.750Z,6.23
2018-07-19T00:51:26.914Z,5.70
2018-07-19T00:53:58.114Z,5.97
2018-07-19T00:56:30.026Z,5.73
2018-07-19T00:59:01.268Z,5.97
2018-07-19T01:01:32.884Z,6.67
2018-07-19T01:04:05.348Z,6.20
2018-07-19T01:06:36.642Z,5.77
2018-07-19T01:09:10.991Z,6.57
2018-07-19T01:11:41.714Z,6.07
2018-07-19T01:14:13.513Z,5.90
2018-07-19T01:16:44.470Z,7.13
2018-07-19T01:19:16.443Z,5.90
2018-07-19T01:21:47.190Z,6.17
2018-07-19T01:24:18.667Z,5.87
2018-07-19T01:26:49.957Z,6.00
2018-07-19T01:29:21.733Z,6.53
2018-07-19T01:31:52.939Z,6.07
2018-07-19T01:34:24.445Z,5.93
2018-07-19T01:36:55.860Z,6.43
2018-07-19T01:39:27.116Z,5.70
2018-07-19T01:43:01.544Z,6.20
2018-07-19T01:45:32.970Z,6.73
2018-07-19T01:48:04.636Z,6.10
2018-07-19T01:50:35.874Z,5.73
2018-07-19T01:53:08.187Z,6.73
2018-07-19T01:55:42.658Z,7.80
2018-07-19T01:58:13.837Z,6.07
2018-07-19T02:00:45.502Z,6.80
2018-07-19T02:03:16.292Z,6.23
2018-07-19T02:05:48.188Z,5.97
2018-07-19T02:08:19.163Z,6.00
2018-07-19T02:10:50.588Z,6.60
2018-07-19T02:13:21.969Z,6.40
2018-07-19T02:15:53.493Z,7.07
2018-07-19T02:18:25.045Z,6.53
2018-07-19T02:20:56.601Z,6.37
2018-07-19T02:23:27.767Z,6.83
2018-07-19T02:25:59.347Z,6.70
2018-07-19T02:28:31.460Z,7.60
2018-07-19T02:31:03.162Z,6.87
2018-07-19T02:33:34.647Z,6.60
2018-07-19T02:36:06.423Z,7.10
2018-07-19T02:38:37.847Z,6.43
2018-07-19T02:41:10.889Z,6.83
2018-07-19T02:43:42.265Z,7.47
2018-07-19T02:46:13.900Z,7.40
2018-07-19T02:48:44.926Z,7.27
2018-07-19T02:51:16.403Z,7.03
2018-07-19T02:53:54.648Z,7.53
2018-07-19T02:56:26.126Z,7.50
2018-07-19T02:58:57.500Z,6.30
2018-07-19T03:01:29.198Z,6.40
2018-07-19T03:04:00.487Z,5.93
2018-07-19T03:06:31.849Z,5.90
2018-07-19T03:09:03.537Z,5.47
2018-07-19T03:11:35.982Z,4.63
2018-07-19T03:14:07.285Z,5.57
2018-07-19T03:16:38.775Z,5.63
2018-07-19T03:19:10.659Z,5.40
2018-07-19T03:21:41.579Z,5.43
2018-07-19T03:24:13.085Z,5.03
2018-07-19T03:26:44.124Z,5.33
2018-07-19T03:29:15.638Z,4.93
2018-07-19T03:31:47.439Z,5.70
2018-07-19T03:34:18.788Z,6.30
2018-07-19T03:36:50.328Z,5.47
2018-07-19T03:39:21.741Z,5.03
2018-07-19T03:41:53.165Z,4.60
2018-07-19T03:44:24.784Z,5.60
2018-07-19T03:46:56.252Z,4.83
2018-07-19T03:49:27.701Z,4.27
2018-07-19T03:51:59.458Z,4.17
2018-07-19T03:54:30.774Z,4.67
2018-07-19T03:57:01.995Z,4.17
2018-07-19T03:59:33.494Z,5.03
2018-07-19T04:02:04.661Z,4.43
2018-07-19T04:04:36.164Z,4.20
2018-07-19T04:07:07.480Z,4.90
2018-07-19T04:09:39.181Z,3.67
2018-07-19T04:12:10.596Z,3.83
2018-07-19T04:14:42.085Z,4.07
2018-07-19T04:17:12.881Z,3.43
2018-07-19T04:19:43.556Z,3.63
2018-07-19T04:22:13.742Z,4.40
2018-07-19T04:24:44.388Z,3.60
2018-07-19T04:27:14.514Z,4.40
2018-07-19T04:29:44.698Z,3.80
2018-07-19T04:32:14.964Z,3.67
2018-07-19T04:34:45.347Z,4.70
2018-07-19T04:37:15.235Z,5.10
2018-07-19T04:39:45.543Z,4.50
2018-07-19T04:42:15.785Z,3.80
2018-07-19T04:44:46.389Z,5.50
2018-07-19T04:47:16.549Z,4.67
2018-07-19T04:49:46.899Z,4.40
2018-07-19T04:52:17.166Z,5.13
2018-07-19T04:54:47.439Z,4.00
2018-07-19T04:57:17.536Z,4.47
2018-07-19T04:59:47.769Z,4.27
2018-07-19T05:02:18.107Z,5.00
2018-07-19T05:04:48.266Z,4.30
2018-07-19T05:07:18.922Z,3.53
2018-07-19T05:09:49.084Z,3.23
2018-07-19T05:12:19.541Z,3.47
2018-07-19T05:14:49.968Z,4.53
2018-07-19T05:17:20.203Z,3.93
2018-07-19T05:19:50.452Z,3.80
2018-07-19T05:22:20.623Z,3.43
2018-07-19T05:24:50.855Z,4.17
2018-07-19T05:27:21.868Z,3.73
2018-07-19T05:29:52.250Z,3.40
2018-07-19T05:32:22.457Z,3.80
2018-07-19T05:34:52.714Z,2.93
2018-07-19T05:37:22.877Z,3.43
2018-07-19T05:39:52.957Z,3.60
2018-07-19T05:42:23.220Z,3.40
2018-07-19T05:44:53.344Z,3.50
2018-07-19T05:47:23.496Z,3.20
2018-07-19T05:49:53.992Z,3.30
2018-07-19T05:52:24.267Z,2.70
2018-07-19T05:54:54.830Z,3.07
2018-07-19T05:57:24.894Z,3.47
2018-07-19T05:59:55.045Z,2.60
2018-07-19T06:02:25.343Z,2.90
2018-07-19T06:04:55.773Z,2.90
2018-07-19T06:07:25.950Z,2.37
2018-07-19T06:09:56.239Z,3.33
2018-07-19T06:12:26.563Z,2.40
2018-07-19T06:14:56.927Z,2.80
2018-07-19T06:17:27.185Z,2.67
2018-07-19T06:26:45.651Z,3.37
2018-07-19T06:29:15.787Z,3.00
2018-07-19T06:31:46.098Z,3.20
2018-07-19T06:34:16.415Z,2.30
2018-07-19T06:36:46.469Z,4.10
2018-07-19T06:39:16.677Z,3.77
2018-07-19T06:41:46.909Z,3.00
2018-07-19T06:44:17.208Z,2.90
2018-07-19T06:46:47.481Z,2.40
2018-07-19T06:49:18.089Z,3.90
2018-07-19T06:51:48.827Z,3.17
2018-07-19T06:54:19.181Z,2.30
2018-07-19T06:56:49.770Z,2.60
2018-07-19T06:59:19.838Z,3.53
2018-07-19T07:01:50.003Z,2.07
2018-07-19T07:04:20.443Z,1.93
2018-07-19T07:06:50.817Z,2.47
2018-07-19T07:09:20.813Z,2.30
2018-07-19T07:11:51.063Z,2.13
2018-07-19T07:14:21.292Z,2.40
2018-07-19T07:16:51.313Z,2.23
2018-07-19T07:19:21.490Z,2.30
2018-07-19T07:21:51.832Z,2.03
2018-07-19T07:24:21.999Z,2.10
2018-07-19T07:26:52.187Z,2.10
2018-07-19T07:29:22.521Z,2.27
2018-07-19T07:31:52.842Z,2.43
2018-07-19T07:34:23.025Z,1.60
2018-07-19T07:36:53.246Z,2.50
2018-07-19T07:39:23.591Z,2.23
2018-07-19T07:41:53.929Z,3.17
2018-07-19T07:44:24.138Z,2.80
2018-07-19T07:46:54.394Z,3.33
2018-07-19T07:49:24.532Z,2.20
2018-07-19T07:51:54.908Z,4.67
2018-07-19T07:54:25.141Z,2.13
2018-07-19T07:56:55.529Z,2.33
2018-07-19T07:59:25.853Z,2.17
2018-07-19T08:01:56.206Z,2.07
2018-07-19T08:04:26.623Z,2.07
2018-07-19T08:06:56.875Z,2.37
2018-07-19T08:09:27.186Z,1.50
2018-07-19T08:11:57.501Z,2.67
2018-07-19T08:14:27.816Z,1.90
2018-07-19T08:16:57.985Z,2.10
2018-07-19T08:19:28.307Z,3.17
2018-07-19T08:21:58.456Z,2.03
2018-07-19T08:24:29.739Z,1.80
2018-07-19T08:27:00.014Z,2.53
2018-07-19T08:29:30.431Z,2.50
2018-07-19T08:32:01.522Z,1.60
2018-07-19T08:34:31.831Z,2.30
2018-07-19T08:37:02.083Z,1.37
2018-07-19T08:39:32.247Z,1.40
2018-07-19T08:42:02.562Z,1.57
2018-07-19T08:44:32.947Z,1.90
2018-07-19T08:47:03.277Z,2.00
2018-07-19T08:49:33.435Z,5.53
2018-07-19T08:52:03.642Z,2.50
2018-07-19T08:54:33.930Z,2.27
2018-07-19T08:57:04.225Z,2.40
2018-07-19T08:59:34.649Z,1.80
2018-07-19T09:02:04.873Z,2.07
2018-07-19T09:04:35.167Z,2.00
2018-07-19T09:07:05.460Z,1.40
2018-07-19T09:09:35.660Z,2.10
2018-07-19T09:12:05.830Z,2.30
2018-07-19T09:14:36.124Z,1.83
2018-07-19T09:17:06.299Z,1.80
2018-07-19T09:19:36.535Z,2.10
2018-07-19T09:24:45.448Z,1.50
2018-07-19T09:27:15.737Z,1.73
2018-07-19T09:29:46.115Z,1.97
2018-07-19T09:32:16.218Z,1.70
2018-07-19T09:34:46.335Z,2.10
2018-07-19T09:37:16.861Z,1.97
2018-07-19T09:39:47.068Z,1.90
2018-07-19T09:42:17.256Z,1.83
2018-07-19T09:44:47.356Z,2.03
2018-07-19T09:47:17.649Z,2.10
2018-07-19T09:49:47.947Z,1.90
2018-07-19T09:52:18.173Z,2.20
2018-07-19T09:54:55.071Z,2.00
2018-07-19T09:57:25.194Z,1.70
2018-07-19T09:59:55.425Z,1.80
2018-07-19T10:02:25.793Z,2.00
2018-07-19T10:04:56.428Z,1.77
2018-07-19T10:07:26.495Z,2.00
2018-07-19T10:09:56.889Z,1.87
2018-07-19T10:12:27.147Z,1.80
2018-07-19T10:14:57.302Z,2.00
2018-07-19T10:17:27.466Z,1.97
2018-07-19T10:19:57.723Z,1.83
2018-07-19T10:22:27.994Z,2.10
2018-07-19T10:24:58.134Z,2.37
2018-07-19T10:27:28.358Z,1.90
2018-07-19T10:29:58.750Z,2.10
2018-07-19T10:32:29.201Z,1.97
2018-07-19T10:34:59.415Z,1.93
2018-07-19T10:37:29.579Z,1.77
2018-07-19T10:39:59.913Z,2.10
2018-07-19T10:42:30.312Z,2.20
2018-07-19T10:45:00.663Z,2.33
2018-07-19T10:47:30.868Z,2.40
2018-07-19T10:50:01.090Z,2.27
2018-07-19T10:52:31.352Z,1.90
2018-07-19T10:55:01.281Z,2.10
2018-07-19T10:57:31.135Z,2.17
2018-07-19T11:00:01.318Z,1.80
2018-07-19T11:02:31.228Z,2.20
2018-07-19T11:05:01.173Z,2.00
2018-07-19T11:07:31.409Z,2.17
2018-07-19T11:10:01.734Z,2.10
2018-07-19T11:12:32.222Z,1.70
2018-07-19T11:15:02.569Z,2.33
2018-07-19T11:17:32.922Z,2.17
2018-07-19T11:20:03.392Z,2.20
2018-07-19T11:22:33.726Z,1.90
2018-07-19T11:25:04.002Z,2.10
2018-07-19T11:27:34.231Z,2.00
2018-07-19T11:30:04.526Z,2.10
2018-07-19T11:32:34.666Z,2.17
2018-07-19T11:35:04.980Z,2.00
2018-07-19T11:37:35.025Z,2.20
2018-07-19T11:40:05.267Z,2.27
2018-07-19T11:42:35.516Z,2.10
2018-07-19T11:45:06.056Z,2.23
2018-07-19T11:47:36.221Z,2.30
2018-07-19T11:50:06.786Z,1.90
2018-07-19T11:52:37.204Z,1.93
2018-07-19T11:55:07.251Z,1.90
2018-07-19T11:57:37.403Z,2.00
2018-07-19T12:00:08.113Z,2.10
2018-07-19T12:02:38.460Z,2.00
2018-07-19T12:05:08.887Z,2.00
2018-07-19T12:07:39.043Z,2.47
2018-07-19T12:10:09.268Z,2.37
2018-07-19T12:12:39.563Z,2.10
2018-07-19T12:15:09.966Z,2.20
2018-07-19T12:17:40.012Z,2.17
2018-07-19T12:20:10.274Z,2.10
2018-07-19T12:22:40.343Z,2.20
2018-07-19T12:25:10.549Z,2.20
2018-07-19T12:27:40.821Z,2.10
2018-07-19T12:30:11.164Z,1.93
2018-07-19T12:32:41.446Z,2.63
2018-07-19T12:35:11.775Z,2.00
2018-07-19T12:37:42.013Z,2.40
2018-07-19T12:40:12.254Z,2.70
2018-07-19T12:42:42.495Z,2.57
2018-07-19T12:45:12.762Z,2.60
2018-07-19T12:47:43.094Z,2.60
2018-07-19T12:50:13.137Z,2.40
2018-07-19T12:52:42.975Z,2.67
2018-07-19T12:55:13.089Z,2.53
2018-07-19T12:57:43.223Z,2.20
2018-07-19T13:00:13.245Z,2.40
2018-07-19T13:02:43.403Z,2.73
2018-07-19T13:05:13.687Z,2.30
2018-07-19T13:07:43.927Z,2.57
2018-07-19T13:10:14.164Z,2.17
2018-07-19T13:12:44.315Z,2.60
2018-07-19T13:15:14.546Z,2.60
2018-07-19T13:17:44.636Z,2.73
2018-07-19T13:20:14.705Z,2.40
2018-07-19T13:22:44.906Z,2.10
2018-07-19T13:25:15.220Z,3.17
2018-07-19T13:27:45.407Z,2.73
2018-07-19T13:30:15.593Z,3.23
2018-07-19T13:32:45.760Z,2.57
2018-07-19T13:35:16.205Z,2.97
2018-07-19T13:37:46.497Z,2.90
2018-07-19T13:40:16.616Z,3.63
2018-07-19T13:42:46.694Z,3.73
2018-07-19T13:45:17.208Z,3.23
2018-07-19T13:47:47.545Z,3.23
2018-07-19T13:50:17.921Z,3.33
2018-07-19T13:52:59.020Z,2.90
2018-07-19T13:55:29.294Z,3.20
2018-07-19T13:57:59.971Z,3.47
2018-07-19T14:00:30.434Z,3.10
2018-07-19T14:03:00.724Z,4.10
2018-07-19T14:05:30.913Z,3.57
2018-07-19T14:08:01.109Z,3.43
2018-07-19T14:10:31.404Z,2.63
2018-07-19T14:13:01.514Z,2.43
2018-07-19T14:15:31.684Z,3.33
2018-07-19T14:18:01.909Z,3.53
2018-07-19T14:20:32.261Z,3.40
2018-07-19T14:23:02.250Z,2.47
2018-07-19T14:25:32.742Z,3.47
2018-07-19T14:28:03.155Z,2.93
2018-07-19T14:30:33.458Z,3.40
2018-07-19T14:33:03.186Z,2.60
2018-07-19T14:35:33.366Z,2.93
2018-07-19T14:38:03.547Z,3.07
2018-07-19T14:40:33.546Z,3.67
2018-07-19T14:43:03.691Z,4.10
2018-07-19T14:45:33.701Z,3.40
2018-07-19T14:48:03.872Z,4.20
2018-07-19T14:50:34.144Z,4.10
2018-07-19T14:53:04.398Z,8.73
2018-07-19T14:55:34.578Z,3.37
2018-07-19T14:58:04.953Z,3.53
2018-07-19T15:00:35.190Z,3.27
2018-07-19T15:03:05.472Z,4.13
2018-07-19T15:05:35.673Z,4.10
2018-07-19T15:08:05.837Z,4.47
2018-07-19T15:10:35.899Z,3.87
2018-07-19T15:13:06.117Z,3.50
2018-07-19T15:15:36.477Z,4.57
2018-07-19T15:18:06.440Z,8.03
2018-07-19T15:20:36.744Z,5.57
2018-07-19T15:23:07.128Z,4.37
2018-07-19T15:25:37.238Z,3.80
2018-07-19T15:28:07.395Z,2.83
2018-07-19T15:30:37.822Z,6.50
2018-07-19T15:33:07.870Z,5.17
2018-07-19T15:35:38.159Z,3.70
2018-07-19T15:38:08.490Z,4.43
2018-07-19T15:40:38.840Z,5.17
2018-07-19T15:43:09.018Z,4.13
2018-07-19T15:45:39.318Z,3.70
2018-07-19T15:49:38.663Z,3.40
2018-07-19T15:52:08.990Z,2.77
2018-07-19T15:54:39.222Z,3.27
2018-07-19T15:57:09.509Z,4.67
2018-07-19T15:59:39.835Z,3.80
2018-07-19T16:02:09.927Z,2.93
2018-07-19T16:04:40.000Z,3.43
2018-07-19T16:07:10.331Z,3.60
2018-07-19T16:09:40.352Z,4.07
2018-07-19T16:12:10.690Z,3.40
2018-07-19T16:14:40.848Z,3.60
2018-07-19T16:17:11.341Z,2.80
2018-07-19T16:19:41.601Z,3.13
2018-07-19T16:22:11.795Z,3.03
2018-07-19T16:24:42.106Z,3.53
2018-07-19T16:27:12.412Z,3.03
2018-07-19T16:29:42.638Z,3.70
2018-07-19T16:32:12.910Z,3.33
2018-07-19T16:34:43.160Z,6.67
2018-07-19T16:37:13.024Z,2.80
2018-07-19T16:39:43.573Z,3.97
2018-07-19T16:42:13.861Z,3.77
2018-07-19T16:44:43.967Z,3.50
2018-07-19T16:47:14.273Z,4.17
2018-07-19T16:49:44.511Z,3.07
2018-07-19T16:52:14.717Z,3.80
2018-07-19T16:54:44.892Z,4.20
2018-07-19T16:57:15.191Z,5.20
2018-07-19T16:59:45.500Z,3.83
2018-07-19T17:02:15.575Z,3.60
2018-07-19T17:04:45.612Z,3.50
2018-07-19T17:07:16.156Z,3.37
2018-07-19T17:09:46.316Z,4.50
2018-07-19T17:12:16.559Z,3.47
2018-07-19T17:14:46.871Z,4.00
2018-07-19T17:17:16.989Z,4.07
2018-07-19T17:19:47.149Z,4.20
2018-07-19T17:22:17.351Z,4.10
2018-07-19T17:24:47.573Z,4.40
2018-07-19T17:27:17.428Z,3.77
2018-07-19T17:29:47.279Z,3.90
2018-07-19T17:32:17.718Z,3.73
2018-07-19T17:34:47.905Z,4.00
2018-07-19T17:37:18.737Z,4.30
2018-07-19T17:39:48.980Z,4.30
2018-07-19T17:42:19.366Z,3.60
2018-07-19T17:44:49.672Z,4.40
2018-07-19T17:47:20.004Z,4.13
2018-07-19T17:49:50.076Z,3.80
2018-07-19T17:52:20.247Z,4.17
2018-07-19T17:54:50.506Z,4.50
2018-07-19T17:57:20.686Z,4.37
2018-07-19T17:59:50.885Z,4.37
2018-07-19T18:02:21.252Z,4.13
2018-07-19T18:04:51.636Z,4.30
2018-07-19T18:07:21.898Z,4.40
2018-07-19T18:09:52.055Z,4.17
2018-07-19T18:12:22.464Z,4.87
2018-07-19T18:14:52.616Z,4.27
2018-07-19T18:17:22.859Z,4.23
2018-07-19T18:19:53.018Z,4.47
2018-07-19T18:22:23.194Z,4.97
2018-07-19T18:24:53.961Z,4.50
2018-07-19T18:27:24.308Z,4.43
2018-07-19T18:29:54.430Z,4.60
2018-07-19T18:32:24.656Z,5.17
2018-07-19T18:34:54.719Z,4.47
2018-07-19T18:37:24.966Z,5.43
2018-07-19T18:39:55.139Z,4.97
2018-07-19T18:42:25.628Z,5.23
2018-07-19T18:44:55.690Z,4.77
2018-07-19T18:47:25.931Z,4.70
2018-07-19T18:49:56.135Z,4.83
2018-07-19T18:52:26.385Z,4.83
2018-07-19T18:54:56.786Z,5.27
2018-07-19T18:57:26.883Z,5.27
2018-07-19T18:59:57.171Z,5.17
2018-07-19T19:02:27.215Z,5.33
2018-07-19T19:04:57.510Z,5.30
2018-07-19T19:07:27.682Z,5.50
2018-07-19T19:09:57.888Z,5.37
2018-07-19T19:12:28.930Z,5.43
2018-07-19T19:14:59.213Z,4.90
2018-07-19T19:17:29.597Z,5.57
2018-07-19T19:19:59.725Z,6.50
2018-07-19T19:22:29.808Z,5.63
2018-07-19T19:25:00.023Z,6.00
2018-07-19T19:27:30.334Z,6.40
2018-07-19T19:30:00.514Z,5.70
2018-07-19T19:32:30.853Z,6.13
2018-07-19T19:35:00.884Z,6.43
2018-07-19T19:37:31.022Z,6.10
2018-07-19T19:40:01.257Z,5.97
2018-07-19T19:42:31.518Z,6.17
2018-07-19T19:45:01.638Z,6.30
2018-07-19T19:47:35.052Z,6.80
2018-07-19T19:50:05.318Z,6.53
2018-07-19T19:52:35.542Z,6.70
2018-07-19T19:55:05.786Z,6.47
2018-07-19T19:57:36.015Z,7.17
2018-07-19T20:00:06.520Z,7.20
2018-07-19T20:02:36.757Z,7.03
2018-07-19T20:05:07.029Z,6.87
2018-07-19T20:07:37.058Z,7.80
2018-07-19T20:10:07.539Z,7.40
2018-07-19T20:12:38.543Z,6.17
2018-07-19T20:15:08.728Z,6.73
2018-07-19T20:17:39.054Z,7.60
2018-07-19T20:20:10.710Z,7.30
2018-07-19T20:22:42.259Z,7.03
2018-07-19T20:25:13.733Z,7.43
2018-07-19T20:27:44.267Z,7.23
2018-07-19T20:30:16.251Z,7.37
2018-07-19T20:32:47.451Z,7.90
2018-07-19T20:35:19.330Z,7.13
2018-07-19T20:37:50.165Z,7.57
2018-07-19T20:40:21.316Z,7.73
2018-07-19T20:42:52.913Z,8.00
2018-07-19T20:45:24.419Z,8.30
2018-07-19T20:47:56.166Z,7.80
2018-07-19T20:50:27.070Z,8.43
2018-07-19T20:52:58.564Z,7.57
2018-07-19T20:55:29.844Z,8.83
2018-07-19T20:58:01.049Z,9.07
2018-07-19T21:00:32.235Z,8.60
2018-07-19T21:03:03.525Z,8.80
2018-07-19T21:05:35.327Z,9.10
2018-07-19T21:09:35.755Z,8.80
2018-07-19T21:12:06.992Z,9.10
2018-07-19T21:14:38.687Z,8.67
2018-07-19T21:17:10.248Z,8.03
2018-07-19T21:19:41.014Z,8.37
2018-07-19T21:22:12.415Z,8.93
2018-07-19T21:24:43.624Z,8.07
2018-07-19T21:27:14.821Z,7.70
2018-07-19T21:29:46.036Z,8.20
2018-07-19T21:32:16.992Z,8.60
2018-07-19T21:34:48.618Z,8.20
2018-07-19T21:37:19.621Z,7.63
2018-07-19T21:39:51.214Z,8.57
2018-07-19T21:42:22.131Z,8.70
2018-07-19T21:44:53.408Z,9.07
2018-07-19T21:47:25.361Z,8.60
2018-07-19T21:49:56.496Z,8.70
2018-07-19T21:52:28.257Z,8.93
2018-07-19T21:54:59.760Z,8.97
2018-07-19T21:57:31.061Z,8.90
2018-07-19T22:00:02.418Z,8.87
2018-07-19T22:02:33.851Z,9.27
2018-07-19T22:05:05.213Z,9.43
2018-07-19T22:07:36.592Z,9.57
2018-07-19T22:10:07.955Z,9.13
2018-07-19T22:12:39.415Z,9.67
2018-07-19T22:15:11.364Z,8.70
2018-07-19T22:17:43.275Z,9.23
2018-07-19T22:20:14.607Z,9.30
2018-07-19T22:22:45.988Z,8.83
2018-07-19T22:25:18.633Z,8.67
2018-07-19T22:27:49.211Z,8.83
2018-07-19T22:37:10.053Z,9.43
2018-07-19T22:39:41.041Z,8.37
2018-07-19T22:42:12.262Z,9.90
2018-07-19T22:44:43.799Z,7.47
2018-07-19T22:47:15.344Z,8.27
2018-07-19T22:49:46.839Z,9.60
2018-07-19T22:52:18.058Z,8.37
2018-07-19T22:54:49.243Z,9.33
2018-07-19T22:57:20.750Z,9.87
2018-07-19T22:59:52.553Z,10.83
2018-07-19T23:02:24.170Z,9.60
2018-07-19T23:04:55.479Z,11.27
2018-07-19T23:07:26.694Z,11.67
2018-07-19T23:09:57.537Z,11.40
2018-07-19T23:12:28.636Z,10.87
2018-07-19T23:14:59.670Z,10.93
2018-07-19T23:17:30.082Z,11.57
2018-07-19T23:20:01.400Z,12.23
2018-07-19T23:22:32.712Z,12.00
2018-07-19T23:25:03.805Z,10.77
2018-07-19T23:27:35.133Z,11.90
2018-07-19T23:30:06.539Z,12.30
2018-07-19T23:32:38.232Z,12.57
2018-07-19T23:35:09.630Z,13.23
2018-07-19T23:37:42.424Z,12.83
2018-07-19T23:40:18.147Z,12.40
2018-07-19T23:42:57.880Z,12.63
2018-07-19T23:46:34.915Z,11.53
2018-07-19T23:49:06.471Z,13.00
2018-07-19T23:51:38.817Z,11.50
2018-07-19T23:54:09.783Z,11.47
2018-07-19T23:56:40.950Z,11.93
2018-07-19T23:59:12.623Z,10.67
